sensor_id;sensor_type;location;lat;lon;timestamp;pressure;altitude;pressure_sealevel;temperature;humidity
57094;BME280;42970;50.996;3.706;2023-04-26T00:00:43;75916.47;;;-146.65;69.77
57094;BME280;42970;50.996;3.706;2023-04-26T00:03:10;75908.41;;;-146.65;69.95
57094;BME280;42970;50.996;3.706;2023-04-26T00:05:37;75902.34;;;-146.65;69.30
57094;BME280;42970;50.996;3.706;2023-04-26T00:08:02;75932.59;;;-146.65;69.57
57094;BME280;42970;50.996;3.706;2023-04-26T00:10:28;75952.78;;;-146.65;69.19
57094;BME280;42970;50.996;3.706;2023-04-26T00:12:54;75956.81;;;-146.65;69.59
57094;BME280;42970;50.996;3.706;2023-04-26T00:15:19;75936.63;;;-146.65;70.02
57094;BME280;42970;50.996;3.706;2023-04-26T00:17:44;75934.63;;;-146.65;69.85
57094;BME280;42970;50.996;3.706;2023-04-26T00:20:10;75954.78;;;-146.65;69.33
57094;BME280;42970;50.996;3.706;2023-04-26T00:22:37;75964.88;;;-146.65;68.74
57094;BME280;42970;50.996;3.706;2023-04-26T00:25:02;75968.91;;;-146.65;68.97
57094;BME280;42970;50.996;3.706;2023-04-26T00:27:27;75932.59;;;-146.65;69.31
57094;BME280;42970;50.996;3.706;2023-04-26T00:29:53;75960.84;;;-146.65;70.51
57094;BME280;42970;50.996;3.706;2023-04-26T00:32:18;75968.91;;;-146.65;70.06
57094;BME280;42970;50.996;3.706;2023-04-26T00:34:43;75970.94;;;-146.65;70.10
57094;BME280;42970;50.996;3.706;2023-04-26T00:37:09;75958.81;;;-146.65;69.49
57094;BME280;42970;50.996;3.706;2023-04-26T00:39:34;75956.81;;;-146.65;68.82
57094;BME280;42970;50.996;3.706;2023-04-26T00:42:00;75970.94;;;-146.65;68.17
57094;BME280;42970;50.996;3.706;2023-04-26T00:44:25;75970.94;;;-146.65;68.15
57094;BME280;42970;50.996;3.706;2023-04-26T00:46:51;75976.97;;;-146.65;67.96
57094;BME280;42970;50.996;3.706;2023-04-26T00:49:17;75979.00;;;-146.65;67.93
57094;BME280;42970;50.996;3.706;2023-04-26T00:51:43;75972.94;;;-146.65;67.91
57094;BME280;42970;50.996;3.706;2023-04-26T00:54:09;76001.19;;;-146.65;67.35
57094;BME280;42970;50.996;3.706;2023-04-26T00:56:35;75987.06;;;-146.65;67.15
57094;BME280;42970;50.996;3.706;2023-04-26T00:59:02;76001.19;;;-146.65;67.29
57094;BME280;42970;50.996;3.706;2023-04-26T01:01:27;76005.22;;;-146.65;67.43
57094;BME280;42970;50.996;3.706;2023-04-26T01:03:53;76013.28;;;-146.65;67.02
57094;BME280;42970;50.996;3.706;2023-04-26T01:06:19;76017.31;;;-146.65;67.26
57094;BME280;42970;50.996;3.706;2023-04-26T01:08:45;76001.19;;;-146.65;67.51
57094;BME280;42970;50.996;3.706;2023-04-26T01:11:11;76005.22;;;-146.65;67.45
57094;BME280;42970;50.996;3.706;2023-04-26T01:13:36;76017.31;;;-146.65;67.43
57094;BME280;42970;50.996;3.706;2023-04-26T01:16:02;76033.47;;;-146.65;66.84
57094;BME280;42970;50.996;3.706;2023-04-26T01:18:30;76013.28;;;-146.65;66.74
57094;BME280;42970;50.996;3.706;2023-04-26T01:20:56;76023.38;;;-146.65;66.63
57094;BME280;42970;50.996;3.706;2023-04-26T01:23:21;76047.59;;;-146.65;66.79
57094;BME280;42970;50.996;3.706;2023-04-26T01:25:47;76039.50;;;-146.65;66.54
57094;BME280;42970;50.996;3.706;2023-04-26T01:28:15;76053.63;;;-146.65;66.63
57094;BME280;42970;50.996;3.706;2023-04-26T01:30:40;76049.59;;;-146.65;66.79
57094;BME280;42970;50.996;3.706;2023-04-26T01:33:06;76047.59;;;-146.65;66.47
57094;BME280;42970;50.996;3.706;2023-04-26T01:35:31;76063.72;;;-146.65;66.82
57094;BME280;42970;50.996;3.706;2023-04-26T01:37:57;76037.50;;;-146.65;66.61
57094;BME280;42970;50.996;3.706;2023-04-26T01:40:22;76049.59;;;-146.65;66.18
57094;BME280;42970;50.996;3.706;2023-04-26T01:42:48;76047.59;;;-146.65;66.43
57094;BME280;42970;50.996;3.706;2023-04-26T01:45:14;76029.44;;;-146.65;66.00
57094;BME280;42970;50.996;3.706;2023-04-26T01:47:40;76041.53;;;-146.65;66.25
57094;BME280;42970;50.996;3.706;2023-04-26T01:50:06;76025.41;;;-146.65;66.76
57094;BME280;42970;50.996;3.706;2023-04-26T01:52:32;76007.25;;;-146.65;67.61
57094;BME280;42970;50.996;3.706;2023-04-26T01:54:57;76009.25;;;-146.65;68.13
57094;BME280;42970;50.996;3.706;2023-04-26T01:57:22;76029.44;;;-146.65;67.38
57094;BME280;42970;50.996;3.706;2023-04-26T01:59:48;76027.41;;;-146.65;67.46
57094;BME280;42970;50.996;3.706;2023-04-26T02:02:15;76045.56;;;-146.65;67.69
57094;BME280;42970;50.996;3.706;2023-04-26T02:04:41;76025.41;;;-146.65;69.20
57094;BME280;42970;50.996;3.706;2023-04-26T02:07:06;76021.34;;;-146.65;68.95
57094;BME280;42970;50.996;3.706;2023-04-26T02:09:33;76035.47;;;-146.65;69.03
57094;BME280;42970;50.996;3.706;2023-04-26T02:12:02;76029.44;;;-146.65;68.93
57094;BME280;42970;50.996;3.706;2023-04-26T02:14:28;76027.41;;;-146.65;69.07
57094;BME280;42970;50.996;3.706;2023-04-26T02:16:53;76015.31;;;-146.65;68.37
57094;BME280;42970;50.996;3.706;2023-04-26T02:19:21;76005.22;;;-146.65;68.54
57094;BME280;42970;50.996;3.706;2023-04-26T02:21:56;75997.16;;;-146.65;68.34
57094;BME280;42970;50.996;3.706;2023-04-26T02:24:25;76003.22;;;-146.65;67.79
57094;BME280;42970;50.996;3.706;2023-04-26T02:26:53;76005.22;;;-146.65;68.24
57094;BME280;42970;50.996;3.706;2023-04-26T02:29:29;76001.19;;;-146.65;68.31
57094;BME280;42970;50.996;3.706;2023-04-26T02:32:01;76005.22;;;-146.65;68.22
57094;BME280;42970;50.996;3.706;2023-04-26T02:34:32;76001.19;;;-146.65;67.98
57094;BME280;42970;50.996;3.706;2023-04-26T02:36:58;75993.13;;;-146.65;67.78
57094;BME280;42970;50.996;3.706;2023-04-26T02:45:22;75983.03;;;-146.65;67.69
57094;BME280;42970;50.996;3.706;2023-04-26T02:53:35;76007.25;;;-146.65;67.79
57094;BME280;42970;50.996;3.706;2023-04-26T02:56:10;76005.22;;;-146.65;67.56
57094;BME280;42970;50.996;3.706;2023-04-26T02:58:35;76013.28;;;-146.65;67.20
57094;BME280;42970;50.996;3.706;2023-04-26T03:01:01;75999.16;;;-146.65;67.05
57094;BME280;42970;50.996;3.706;2023-04-26T03:03:28;75976.97;;;-146.65;66.58
57094;BME280;42970;50.996;3.706;2023-04-26T03:05:54;76011.28;;;-146.65;66.59
57094;BME280;42970;50.996;3.706;2023-04-26T03:08:20;75999.16;;;-146.65;66.48
57094;BME280;42970;50.996;3.706;2023-04-26T03:10:45;75999.16;;;-146.65;66.95
57094;BME280;42970;50.996;3.706;2023-04-26T03:13:11;75987.06;;;-146.65;68.02
57094;BME280;42970;50.996;3.706;2023-04-26T03:15:37;76017.31;;;-146.65;69.41
57094;BME280;42970;50.996;3.706;2023-04-26T03:18:02;76019.34;;;-146.65;69.87
57094;BME280;42970;50.996;3.706;2023-04-26T03:20:28;76021.34;;;-146.65;70.71
57094;BME280;42970;50.996;3.706;2023-04-26T03:22:53;76009.25;;;-146.65;71.66
57094;BME280;42970;50.996;3.706;2023-04-26T03:25:18;76017.31;;;-146.65;70.44
57094;BME280;42970;50.996;3.706;2023-04-26T03:27:44;76025.41;;;-146.65;69.92
57094;BME280;42970;50.996;3.706;2023-04-26T03:30:09;75999.16;;;-146.65;69.75
57094;BME280;42970;50.996;3.706;2023-04-26T03:32:35;75999.16;;;-146.65;69.48
57094;BME280;42970;50.996;3.706;2023-04-26T03:35:00;76003.22;;;-146.65;69.16
57094;BME280;42970;50.996;3.706;2023-04-26T03:37:26;76003.22;;;-146.65;69.22
57094;BME280;42970;50.996;3.706;2023-04-26T03:39:53;75987.06;;;-146.65;69.03
57094;BME280;42970;50.996;3.706;2023-04-26T03:42:21;75993.13;;;-146.65;68.86
57094;BME280;42970;50.996;3.706;2023-04-26T03:44:47;75972.94;;;-146.65;68.79
57094;BME280;42970;50.996;3.706;2023-04-26T03:47:13;75989.09;;;-146.65;68.83
57094;BME280;42970;50.996;3.706;2023-04-26T03:49:40;75966.91;;;-146.65;68.56
57094;BME280;42970;50.996;3.706;2023-04-26T03:52:06;75972.94;;;-146.65;68.90
57094;BME280;42970;50.996;3.706;2023-04-26T03:54:32;75972.94;;;-146.65;68.60
57094;BME280;42970;50.996;3.706;2023-04-26T03:56:58;75964.88;;;-146.65;68.52
57094;BME280;42970;50.996;3.706;2023-04-26T03:59:23;75960.84;;;-146.65;68.58
57094;BME280;42970;50.996;3.706;2023-04-26T04:01:50;75962.84;;;-146.65;68.55
57094;BME280;42970;50.996;3.706;2023-04-26T04:04:15;75970.94;;;-146.65;69.53
57094;BME280;42970;50.996;3.706;2023-04-26T04:06:41;75930.59;;;-146.65;70.08
57094;BME280;42970;50.996;3.706;2023-04-26T04:09:11;75948.75;;;-146.65;70.86
57094;BME280;42970;50.996;3.706;2023-04-26T04:11:36;75972.94;;;-146.65;70.26
57094;BME280;42970;50.996;3.706;2023-04-26T04:14:03;75974.97;;;-146.65;69.94
57094;BME280;42970;50.996;3.706;2023-04-26T04:16:28;75964.88;;;-146.65;70.25
57094;BME280;42970;50.996;3.706;2023-04-26T04:18:54;75968.91;;;-146.65;69.61
57094;BME280;42970;50.996;3.706;2023-04-26T04:21:19;75958.81;;;-146.65;69.54
57094;BME280;42970;50.996;3.706;2023-04-26T04:23:45;75950.75;;;-146.65;69.41
57094;BME280;42970;50.996;3.706;2023-04-26T04:26:12;75944.69;;;-146.65;68.88
57094;BME280;42970;50.996;3.706;2023-04-26T04:28:40;75952.78;;;-146.65;69.05
57094;BME280;42970;50.996;3.706;2023-04-26T04:31:14;75956.81;;;-146.65;68.76
57094;BME280;42970;50.996;3.706;2023-04-26T04:33:41;75970.94;;;-146.65;68.80
57094;BME280;42970;50.996;3.706;2023-04-26T04:36:06;75964.88;;;-146.65;68.74
57094;BME280;42970;50.996;3.706;2023-04-26T04:38:32;75952.78;;;-146.65;69.14
57094;BME280;42970;50.996;3.706;2023-04-26T04:40:58;75928.56;;;-146.65;69.76
57094;BME280;42970;50.996;3.706;2023-04-26T04:43:24;75958.81;;;-146.65;69.89
57094;BME280;42970;50.996;3.706;2023-04-26T04:45:51;75950.75;;;-146.65;69.64
57094;BME280;42970;50.996;3.706;2023-04-26T04:48:17;75954.78;;;-146.65;69.70
57094;BME280;42970;50.996;3.706;2023-04-26T04:50:44;75936.63;;;-146.65;69.59
57094;BME280;42970;50.996;3.706;2023-04-26T04:53:09;75942.69;;;-146.65;69.48
57094;BME280;42970;50.996;3.706;2023-04-26T04:55:36;75938.66;;;-146.65;69.02
57094;BME280;42970;50.996;3.706;2023-04-26T04:58:02;75936.63;;;-146.65;69.40
57094;BME280;42970;50.996;3.706;2023-04-26T05:00:28;75930.59;;;-146.65;69.33
57094;BME280;42970;50.996;3.706;2023-04-26T05:02:53;75958.81;;;-146.65;69.41
57094;BME280;42970;50.996;3.706;2023-04-26T05:05:19;75948.75;;;-146.65;69.62
57094;BME280;42970;50.996;3.706;2023-04-26T05:07:44;75958.81;;;-146.65;70.25
57094;BME280;42970;50.996;3.706;2023-04-26T05:10:10;75944.69;;;-146.65;70.11
57094;BME280;42970;50.996;3.706;2023-04-26T05:12:35;75940.66;;;-146.65;69.98
57094;BME280;42970;50.996;3.706;2023-04-26T05:15:01;75952.78;;;-146.65;70.09
57094;BME280;42970;50.996;3.706;2023-04-26T05:17:26;75936.63;;;-146.65;70.31
57094;BME280;42970;50.996;3.706;2023-04-26T05:19:51;75956.81;;;-146.65;70.40
57094;BME280;42970;50.996;3.706;2023-04-26T05:22:17;75956.81;;;-146.65;70.67
57094;BME280;42970;50.996;3.706;2023-04-26T05:24:46;75932.59;;;-146.65;70.48
57094;BME280;42970;50.996;3.706;2023-04-26T05:27:12;75964.88;;;-146.65;70.57
57094;BME280;42970;50.996;3.706;2023-04-26T05:29:38;75954.78;;;-146.65;70.78
57094;BME280;42970;50.996;3.706;2023-04-26T05:32:04;75940.66;;;-146.65;70.88
57094;BME280;42970;50.996;3.706;2023-04-26T05:34:29;75934.63;;;-146.65;70.64
57094;BME280;42970;50.996;3.706;2023-04-26T05:36:54;75928.56;;;-146.65;70.57
57094;BME280;42970;50.996;3.706;2023-04-26T05:39:20;75924.53;;;-146.65;70.77
57094;BME280;42970;50.996;3.706;2023-04-26T05:41:46;75912.44;;;-146.65;70.75
57094;BME280;42970;50.996;3.706;2023-04-26T05:44:12;75924.53;;;-146.65;70.88
57094;BME280;42970;50.996;3.706;2023-04-26T05:46:37;75916.47;;;-146.65;71.01
57094;BME280;42970;50.996;3.706;2023-04-26T05:49:03;75892.25;;;-146.65;70.64
57094;BME280;42970;50.996;3.706;2023-04-26T05:51:28;75872.09;;;-146.65;70.76
57094;BME280;42970;50.996;3.706;2023-04-26T05:53:53;75843.84;;;-146.65;70.69
57094;BME280;42970;50.996;3.706;2023-04-26T05:56:19;75817.63;;;-146.65;71.18
57094;BME280;42970;50.996;3.706;2023-04-26T05:58:45;75803.50;;;-146.65;70.96
57094;BME280;42970;50.996;3.706;2023-04-26T06:01:11;75783.31;;;-146.65;70.31
57094;BME280;42970;50.996;3.706;2023-04-26T06:03:37;75769.22;;;-146.65;69.59
57094;BME280;42970;50.996;3.706;2023-04-26T06:06:03;75747.03;;;-146.65;68.87
57094;BME280;42970;50.996;3.706;2023-04-26T06:08:28;75763.16;;;-146.65;68.68
57094;BME280;42970;50.996;3.706;2023-04-26T06:10:54;75751.06;;;-146.65;68.96
57094;BME280;42970;50.996;3.706;2023-04-26T06:13:19;75755.09;;;-146.65;68.61
57094;BME280;42970;50.996;3.706;2023-04-26T06:15:45;75747.03;;;-146.65;68.90
57094;BME280;42970;50.996;3.706;2023-04-26T06:18:10;75712.72;;;-146.65;68.05
57094;BME280;42970;50.996;3.706;2023-04-26T06:20:35;75742.97;;;-146.65;68.26
57094;BME280;42970;50.996;3.706;2023-04-26T06:23:00;75728.88;;;-146.65;68.10
57094;BME280;42970;50.996;3.706;2023-04-26T06:25:26;75700.63;;;-146.65;68.09
57094;BME280;42970;50.996;3.706;2023-04-26T06:27:51;75674.41;;;-146.65;67.71
57094;BME280;42970;50.996;3.706;2023-04-26T06:30:16;75638.09;;;-146.65;67.67
57094;BME280;42970;50.996;3.706;2023-04-26T06:32:42;75626.00;;;-146.65;66.79
57094;BME280;42970;50.996;3.706;2023-04-26T06:35:07;75617.94;;;-146.65;66.40
57094;BME280;42970;50.996;3.706;2023-04-26T06:37:33;75619.94;;;-146.65;66.12
57094;BME280;42970;50.996;3.706;2023-04-26T06:39:58;75601.78;;;-146.65;65.94
57094;BME280;42970;50.996;3.706;2023-04-26T06:42:24;75628.00;;;-146.65;66.05
57094;BME280;42970;50.996;3.706;2023-04-26T06:44:49;75597.75;;;-146.65;66.12
57094;BME280;42970;50.996;3.706;2023-04-26T06:47:14;75589.69;;;-146.65;65.81
57094;BME280;42970;50.996;3.706;2023-04-26T06:49:40;75605.81;;;-146.65;65.63
57094;BME280;42970;50.996;3.706;2023-04-26T06:52:05;75623.97;;;-146.65;65.64
57094;BME280;42970;50.996;3.706;2023-04-26T06:54:31;75640.09;;;-146.65;65.95
57094;BME280;42970;50.996;3.706;2023-04-26T06:56:56;75621.97;;;-146.65;65.68
57094;BME280;42970;50.996;3.706;2023-04-26T06:59:21;75583.63;;;-146.65;64.70
57094;BME280;42970;50.996;3.706;2023-04-26T07:01:47;75601.78;;;-146.65;64.67
57094;BME280;42970;50.996;3.706;2023-04-26T07:04:12;75589.69;;;-146.65;64.29
57094;BME280;42970;50.996;3.706;2023-04-26T07:06:39;75571.53;;;-146.65;63.90
57094;BME280;42970;50.996;3.706;2023-04-26T07:09:04;75561.44;;;-146.65;63.75
57094;BME280;42970;50.996;3.706;2023-04-26T07:11:30;75553.38;;;-146.65;63.71
57094;BME280;42970;50.996;3.706;2023-04-26T07:13:55;75513.03;;;-146.65;62.89
57094;BME280;42970;50.996;3.706;2023-04-26T07:16:21;75470.69;;;-146.65;62.17
57094;BME280;42970;50.996;3.706;2023-04-26T07:18:46;75476.72;;;-146.65;62.27
57094;BME280;42970;50.996;3.706;2023-04-26T07:21:12;75480.75;;;-146.65;62.56
57094;BME280;42970;50.996;3.706;2023-04-26T07:23:38;75468.66;;;-146.65;61.78
57094;BME280;42970;50.996;3.706;2023-04-26T07:26:03;75456.56;;;-146.65;61.36
57094;BME280;42970;50.996;3.706;2023-04-26T07:28:32;75442.44;;;-146.65;60.96
57094;BME280;42970;50.996;3.706;2023-04-26T07:30:57;75428.31;;;-146.65;60.85
57094;BME280;42970;50.996;3.706;2023-04-26T07:33:23;75400.09;;;-146.65;60.07
57094;BME280;42970;50.996;3.706;2023-04-26T07:35:52;75392.00;;;-146.65;59.09
57094;BME280;42970;50.996;3.706;2023-04-26T07:38:17;75420.25;;;-146.65;58.22
57094;BME280;42970;50.996;3.706;2023-04-26T07:40:43;75412.19;;;-146.65;57.84
57094;BME280;42970;50.996;3.706;2023-04-26T07:43:09;75383.94;;;-146.65;57.84
57094;BME280;42970;50.996;3.706;2023-04-26T07:45:34;75341.59;;;-146.65;57.86
57094;BME280;42970;50.996;3.706;2023-04-26T07:47:59;75323.44;;;-146.65;54.79
57094;BME280;42970;50.996;3.706;2023-04-26T07:50:25;75266.97;;;-146.65;53.30
57094;BME280;42970;50.996;3.706;2023-04-26T07:52:50;75299.25;;;-146.65;50.23
57094;BME280;42970;50.996;3.706;2023-04-26T07:55:15;75303.28;;;-146.65;49.73
57094;BME280;42970;50.996;3.706;2023-04-26T07:57:41;75248.81;;;-146.65;49.67
57094;BME280;42970;50.996;3.706;2023-04-26T08:00:06;75238.72;;;-146.65;49.01
57094;BME280;42970;50.996;3.706;2023-04-26T08:02:34;75152.00;;;-146.65;47.62
57094;BME280;42970;50.996;3.706;2023-04-26T08:05:00;75145.94;;;-146.65;46.91
57094;BME280;42970;50.996;3.706;2023-04-26T08:07:25;75156.03;;;-146.65;47.18
57094;BME280;42970;50.996;3.706;2023-04-26T08:09:50;75198.38;;;-146.65;46.92
57094;BME280;42970;50.996;3.706;2023-04-26T08:12:16;75204.44;;;-146.65;46.36
57094;BME280;42970;50.996;3.706;2023-04-26T08:14:41;75188.31;;;-146.65;47.14
57094;BME280;42970;50.996;3.706;2023-04-26T08:17:07;75129.81;;;-146.65;45.85
57094;BME280;42970;50.996;3.706;2023-04-26T08:19:33;75109.66;;;-146.65;46.31
57094;BME280;42970;50.996;3.706;2023-04-26T08:21:59;75097.56;;;-146.65;45.67
57094;BME280;42970;50.996;3.706;2023-04-26T08:24:24;75081.41;;;-146.65;45.53
57094;BME280;42970;50.996;3.706;2023-04-26T08:26:49;75087.47;;;-146.65;45.56
57094;BME280;42970;50.996;3.706;2023-04-26T08:29:15;75073.34;;;-146.65;46.03
57094;BME280;42970;50.996;3.706;2023-04-26T08:31:40;75047.13;;;-146.65;45.88
57094;BME280;42970;50.996;3.706;2023-04-26T08:34:06;75045.13;;;-146.65;45.22
57094;BME280;42970;50.996;3.706;2023-04-26T08:36:37;74968.47;;;-146.65;44.22
57094;BME280;42970;50.996;3.706;2023-04-26T08:39:03;74946.28;;;-146.65;43.64
57094;BME280;42970;50.996;3.706;2023-04-26T08:41:30;74960.41;;;-146.65;43.83
57094;BME280;42970;50.996;3.706;2023-04-26T08:43:59;74976.53;;;-146.65;43.51
57094;BME280;42970;50.996;3.706;2023-04-26T08:46:25;74972.50;;;-146.65;43.27
57094;BME280;42970;50.996;3.706;2023-04-26T08:49:04;74956.38;;;-146.65;41.29
57094;BME280;42970;50.996;3.706;2023-04-26T08:51:30;75047.13;;;-146.65;41.33
57094;BME280;42970;50.996;3.706;2023-04-26T08:53:57;75091.50;;;-146.65;41.65
57094;BME280;42970;50.996;3.706;2023-04-26T08:56:23;75055.19;;;-146.65;42.34
57094;BME280;42970;50.996;3.706;2023-04-26T08:58:49;74984.59;;;-146.65;40.22
57094;BME280;42970;50.996;3.706;2023-04-26T09:01:16;74944.28;;;-146.65;39.42
57094;BME280;42970;50.996;3.706;2023-04-26T09:03:42;74903.94;;;-146.65;38.83
57094;BME280;42970;50.996;3.706;2023-04-26T09:06:07;74861.59;;;-146.65;39.22
57094;BME280;42970;50.996;3.706;2023-04-26T09:08:34;74819.25;;;-146.65;38.12
57094;BME280;42970;50.996;3.706;2023-04-26T09:11:01;74841.41;;;-146.65;38.70
57094;BME280;42970;50.996;3.706;2023-04-26T09:13:27;74871.66;;;-146.65;37.73
57094;BME280;42970;50.996;3.706;2023-04-26T09:15:54;74912.00;;;-146.65;39.12
57094;BME280;42970;50.996;3.706;2023-04-26T09:18:20;74887.81;;;-146.65;37.97
57094;BME280;42970;50.996;3.706;2023-04-26T09:21:00;74901.91;;;-146.65;38.11
57094;BME280;42970;50.996;3.706;2023-04-26T09:23:25;74920.06;;;-146.65;39.36
57094;BME280;42970;50.996;3.706;2023-04-26T09:25:50;74936.22;;;-146.65;38.45
57094;BME280;42970;50.996;3.706;2023-04-26T09:28:20;74875.72;;;-146.65;37.69
57094;BME280;42970;50.996;3.706;2023-04-26T09:30:46;74899.91;;;-146.65;37.07
57094;BME280;42970;50.996;3.706;2023-04-26T09:33:12;74879.75;;;-146.65;37.95
57094;BME280;42970;50.996;3.706;2023-04-26T09:35:38;74905.97;;;-146.65;39.01
57094;BME280;42970;50.996;3.706;2023-04-26T09:38:09;74976.53;;;-146.65;38.16
57094;BME280;42970;50.996;3.706;2023-04-26T09:43:05;74942.25;;;-146.65;38.70
57094;BME280;42970;50.996;3.706;2023-04-26T09:45:32;74956.38;;;-146.65;37.98
57094;BME280;42970;50.996;3.706;2023-04-26T09:50:47;74956.38;;;-146.65;36.73
57094;BME280;42970;50.996;3.706;2023-04-26T09:53:29;74827.31;;;-146.65;36.61
57094;BME280;42970;50.996;3.706;2023-04-26T09:55:55;74807.13;;;-146.65;35.52
57094;BME280;42970;50.996;3.706;2023-04-26T09:58:21;74770.84;;;-146.65;35.91
57094;BME280;42970;50.996;3.706;2023-04-26T10:00:48;74819.25;;;-146.65;36.08
57094;BME280;42970;50.996;3.706;2023-04-26T10:03:14;74764.78;;;-146.65;35.91
57094;BME280;42970;50.996;3.706;2023-04-26T10:05:41;74702.28;;;-146.65;35.16
57094;BME280;42970;50.996;3.706;2023-04-26T10:08:07;74734.53;;;-146.65;34.78
57094;BME280;42970;50.996;3.706;2023-04-26T10:10:32;74706.31;;;-146.65;34.42
57094;BME280;42970;50.996;3.706;2023-04-26T10:12:58;74676.06;;;-146.65;34.69
57094;BME280;42970;50.996;3.706;2023-04-26T10:15:24;74589.34;;;-146.65;33.16
57094;BME280;42970;50.996;3.706;2023-04-26T10:17:50;74555.06;;;-146.65;32.64
57094;BME280;42970;50.996;3.706;2023-04-26T10:20:15;74569.19;;;-146.65;33.44
57094;BME280;42970;50.996;3.706;2023-04-26T10:22:44;74575.22;;;-146.65;32.85
57094;BME280;42970;50.996;3.706;2023-04-26T10:25:10;74641.78;;;-146.65;33.46
57094;BME280;42970;50.996;3.706;2023-04-26T10:27:53;74530.88;;;-146.65;33.80
57094;BME280;42970;50.996;3.706;2023-04-26T10:30:19;74508.69;;;-146.65;33.72
57094;BME280;42970;50.996;3.706;2023-04-26T10:35:17;74659.91;;;-146.65;33.66
57094;BME280;42970;50.996;3.706;2023-04-26T10:40:24;74549.00;;;-146.65;32.79
57094;BME280;42970;50.996;3.706;2023-04-26T10:42:50;74565.16;;;-146.65;33.42
57094;BME280;42970;50.996;3.706;2023-04-26T10:45:28;74615.56;;;-146.65;31.46
57094;BME280;42970;50.996;3.706;2023-04-26T10:51:24;74647.81;;;-146.65;31.63
57094;BME280;42970;50.996;3.706;2023-04-26T10:56:35;74244.53;;;-146.65;29.36
57094;BME280;42970;50.996;3.706;2023-04-26T10:59:09;74242.50;;;-146.65;30.38
57094;BME280;42970;50.996;3.706;2023-04-26T11:01:35;74192.09;;;-146.65;28.93
57094;BME280;42970;50.996;3.706;2023-04-26T11:04:05;74347.38;;;-146.65;29.65
57094;BME280;42970;50.996;3.706;2023-04-26T11:12:11;74075.16;;;-146.65;30.04
57094;BME280;42970;50.996;3.706;2023-04-26T11:14:37;74270.75;;;-146.65;28.03
57094;BME280;42970;50.996;3.706;2023-04-26T11:17:03;74472.38;;;-146.65;29.89
57094;BME280;42970;50.996;3.706;2023-04-26T11:19:29;74571.19;;;-146.65;30.87
57094;BME280;42970;50.996;3.706;2023-04-26T11:21:54;74488.50;;;-146.65;31.24
57094;BME280;42970;50.996;3.706;2023-04-26T11:24:29;74710.34;;;-146.65;31.37
57094;BME280;42970;50.996;3.706;2023-04-26T11:26:56;74686.13;;;-146.65;31.39
57094;BME280;42970;50.996;3.706;2023-04-26T11:29:22;74641.78;;;-146.65;30.88
57094;BME280;42970;50.996;3.706;2023-04-26T11:31:54;74510.69;;;-146.65;30.49
57094;BME280;42970;50.996;3.706;2023-04-26T11:34:20;74536.91;;;-146.65;30.53
57094;BME280;42970;50.996;3.706;2023-04-26T11:36:47;74415.91;;;-146.65;30.16
57094;BME280;42970;50.996;3.706;2023-04-26T11:39:12;74474.41;;;-146.65;29.99
57094;BME280;42970;50.996;3.706;2023-04-26T11:41:37;74514.72;;;-146.65;31.64
57094;BME280;42970;50.996;3.706;2023-04-26T11:44:03;74534.91;;;-146.65;31.30
57094;BME280;42970;50.996;3.706;2023-04-26T11:46:28;74466.34;;;-146.65;30.83
57094;BME280;42970;50.996;3.706;2023-04-26T11:48:54;74351.41;;;-146.65;30.31
57094;BME280;42970;50.996;3.706;2023-04-26T11:51:20;74355.44;;;-146.65;29.74
57094;BME280;42970;50.996;3.706;2023-04-26T11:53:45;74321.16;;;-146.65;29.96
57094;BME280;42970;50.996;3.706;2023-04-26T11:56:14;74216.28;;;-146.65;29.33
57094;BME280;42970;50.996;3.706;2023-04-26T11:58:43;74313.09;;;-146.65;28.54
57094;BME280;42970;50.996;3.706;2023-04-26T12:01:08;74282.84;;;-146.65;28.85
57094;BME280;42970;50.996;3.706;2023-04-26T12:03:33;74262.66;;;-146.65;29.08
57094;BME280;42970;50.996;3.706;2023-04-26T12:06:01;74363.50;;;-146.65;29.01
57094;BME280;42970;50.996;3.706;2023-04-26T12:08:27;74371.56;;;-146.65;30.13
57094;BME280;42970;50.996;3.706;2023-04-26T12:10:52;74395.75;;;-146.65;29.38
57094;BME280;42970;50.996;3.706;2023-04-26T12:13:18;74373.56;;;-146.65;29.82
57094;BME280;42970;50.996;3.706;2023-04-26T12:15:44;74258.63;;;-146.65;29.20
57094;BME280;42970;50.996;3.706;2023-04-26T12:18:10;74282.84;;;-146.65;28.34
57094;BME280;42970;50.996;3.706;2023-04-26T12:20:37;74214.28;;;-146.65;29.13
57094;BME280;42970;50.996;3.706;2023-04-26T12:25:34;73962.25;;;-146.65;26.76
57094;BME280;42970;50.996;3.706;2023-04-26T12:28:01;73909.81;;;-146.65;27.56
57094;BME280;42970;50.996;3.706;2023-04-26T12:30:45;73770.69;;;-146.65;25.75
57094;BME280;42970;50.996;3.706;2023-04-26T12:33:11;73752.56;;;-146.65;25.41
57094;BME280;42970;50.996;3.706;2023-04-26T12:35:36;73710.22;;;-146.65;25.72
57094;BME280;42970;50.996;3.706;2023-04-26T12:38:01;73863.44;;;-146.65;25.60
57094;BME280;42970;50.996;3.706;2023-04-26T12:40:27;73770.69;;;-146.65;25.73
57094;BME280;42970;50.996;3.706;2023-04-26T12:42:52;73774.72;;;-146.65;25.98
57094;BME280;42970;50.996;3.706;2023-04-26T12:45:20;73946.09;;;-146.65;26.43
57094;BME280;42970;50.996;3.706;2023-04-26T12:47:45;74186.06;;;-146.65;27.52
57094;BME280;42970;50.996;3.706;2023-04-26T12:50:11;74280.81;;;-146.65;29.21
57094;BME280;42970;50.996;3.706;2023-04-26T12:52:37;74383.66;;;-146.65;28.66
57094;BME280;42970;50.996;3.706;2023-04-26T12:55:02;74292.91;;;-146.65;29.81
57094;BME280;42970;50.996;3.706;2023-04-26T12:57:29;74315.09;;;-146.65;28.71
57094;BME280;42970;50.996;3.706;2023-04-26T12:59:54;74363.50;;;-146.65;30.15
57094;BME280;42970;50.996;3.706;2023-04-26T13:02:21;74323.16;;;-146.65;29.12
57094;BME280;42970;50.996;3.706;2023-04-26T13:04:46;74339.28;;;-146.65;28.78
57094;BME280;42970;50.996;3.706;2023-04-26T13:07:12;74389.72;;;-146.65;30.89
57094;BME280;42970;50.996;3.706;2023-04-26T13:09:37;74498.59;;;-146.65;30.51
57094;BME280;42970;50.996;3.706;2023-04-26T13:12:03;74424.00;;;-146.65;30.21